Briercrest, Canada
Current Conditions -  °F | °C
As of 4:00 AM on Friday 24 Oct 2014 (Local Time) from CYMJ Reporting Station
Overcast Overcast  
Wind Chill: 55°   Ceiling: 15000
Heat Index: 55°   Visibility: 15mi
Dew Point: 43°   Wind: 17mph
Humidity: 63%   Direction: 250°WSW
Pressure: 29.66"   Gusts: NA
Location:  50.17°N, 105.27°W
Report Text: CYMJ 241000Z 25015KT 15SM FEW100 OVC150 13/06 A2966 RMK AC2AC6FST OBS SLP050
Loading
Personal Weather Stations






























Interactive Weather Map New forecast layout! Learn more

10-Day Weather Forecast

Advertisements
Track Severe Weather on mobile